sensor_id;sensor_type;location;lat;lon;timestamp;temperature;humidity
20291;DHT22;10304;51.074;13.754;2023-07-31T00:02:18;19.80;1.00
20291;DHT22;10304;51.074;13.754;2023-07-31T00:04:45;19.80;1.00
20291;DHT22;10304;51.074;13.754;2023-07-31T00:07:12;19.80;1.00
20291;DHT22;10304;51.074;13.754;2023-07-31T00:09:39;19.80;1.00
20291;DHT22;10304;51.074;13.754;2023-07-31T00:12:06;19.80;1.00
20291;DHT22;10304;51.074;13.754;2023-07-31T00:14:33;19.80;1.00
20291;DHT22;10304;51.074;13.754;2023-07-31T00:17:00;19.80;1.00
20291;DHT22;10304;51.074;13.754;2023-07-31T00:19:27;19.80;1.00
20291;DHT22;10304;51.074;13.754;2023-07-31T00:21:54;19.80;1.00
20291;DHT22;10304;51.074;13.754;2023-07-31T00:24:20;19.80;1.00
20291;DHT22;10304;51.074;13.754;2023-07-31T00:26:47;19.80;1.00
20291;DHT22;10304;51.074;13.754;2023-07-31T00:29:14;19.80;1.00
20291;DHT22;10304;51.074;13.754;2023-07-31T00:31:41;19.70;1.00
20291;DHT22;10304;51.074;13.754;2023-07-31T00:34:07;19.70;1.00
20291;DHT22;10304;51.074;13.754;2023-07-31T00:36:34;19.60;1.00
20291;DHT22;10304;51.074;13.754;2023-07-31T00:39:01;19.60;1.00
20291;DHT22;10304;51.074;13.754;2023-07-31T00:41:27;19.50;1.00
20291;DHT22;10304;51.074;13.754;2023-07-31T00:43:54;19.50;1.00
20291;DHT22;10304;51.074;13.754;2023-07-31T00:46:21;19.50;1.00
20291;DHT22;10304;51.074;13.754;2023-07-31T00:48:48;19.50;1.00
20291;DHT22;10304;51.074;13.754;2023-07-31T00:51:16;19.40;1.00
20291;DHT22;10304;51.074;13.754;2023-07-31T00:53:43;19.40;1.00
20291;DHT22;10304;51.074;13.754;2023-07-31T00:56:11;19.40;1.00
20291;DHT22;10304;51.074;13.754;2023-07-31T00:58:38;19.40;1.00
20291;DHT22;10304;51.074;13.754;2023-07-31T01:01:05;19.30;1.00
20291;DHT22;10304;51.074;13.754;2023-07-31T01:03:32;19.30;1.00
20291;DHT22;10304;51.074;13.754;2023-07-31T01:06:20;19.30;1.00
20291;DHT22;10304;51.074;13.754;2023-07-31T01:09:06;19.30;1.00
20291;DHT22;10304;51.074;13.754;2023-07-31T01:11:43;19.30;1.00
20291;DHT22;10304;51.074;13.754;2023-07-31T01:14:13;19.30;1.00
20291;DHT22;10304;51.074;13.754;2023-07-31T01:16:39;19.20;1.00
20291;DHT22;10304;51.074;13.754;2023-07-31T01:19:09;19.30;1.00
20291;DHT22;10304;51.074;13.754;2023-07-31T01:27:15;19.20;1.00
20291;DHT22;10304;51.074;13.754;2023-07-31T01:29:52;19.20;1.00
20291;DHT22;10304;51.074;13.754;2023-07-31T01:32:21;19.20;1.00
20291;DHT22;10304;51.074;13.754;2023-07-31T01:34:49;19.20;1.00
20291;DHT22;10304;51.074;13.754;2023-07-31T01:37:17;19.20;1.00
20291;DHT22;10304;51.074;13.754;2023-07-31T01:39:44;19.20;1.00
20291;DHT22;10304;51.074;13.754;2023-07-31T01:42:10;19.20;1.00
20291;DHT22;10304;51.074;13.754;2023-07-31T01:44:37;19.20;1.00
20291;DHT22;10304;51.074;13.754;2023-07-31T01:47:04;19.20;1.00
20291;DHT22;10304;51.074;13.754;2023-07-31T01:49:31;19.20;1.00
20291;DHT22;10304;51.074;13.754;2023-07-31T01:51:57;19.20;1.00
20291;DHT22;10304;51.074;13.754;2023-07-31T01:54:24;19.20;1.00
20291;DHT22;10304;51.074;13.754;2023-07-31T01:56:51;19.30;1.00
20291;DHT22;10304;51.074;13.754;2023-07-31T01:59:17;19.40;1.00
20291;DHT22;10304;51.074;13.754;2023-07-31T02:01:44;19.40;1.00
20291;DHT22;10304;51.074;13.754;2023-07-31T02:04:11;19.40;1.00
20291;DHT22;10304;51.074;13.754;2023-07-31T02:06:38;19.40;1.00
20291;DHT22;10304;51.074;13.754;2023-07-31T02:09:06;19.50;1.00
20291;DHT22;10304;51.074;13.754;2023-07-31T02:11:33;19.50;1.00
20291;DHT22;10304;51.074;13.754;2023-07-31T02:13:59;19.50;1.00
20291;DHT22;10304;51.074;13.754;2023-07-31T02:16:26;19.60;1.00
20291;DHT22;10304;51.074;13.754;2023-07-31T02:18:53;19.60;1.00
20291;DHT22;10304;51.074;13.754;2023-07-31T02:21:20;19.60;1.00
20291;DHT22;10304;51.074;13.754;2023-07-31T02:23:46;19.70;99.90
20291;DHT22;10304;51.074;13.754;2023-07-31T02:26:13;19.70;99.90
20291;DHT22;10304;51.074;13.754;2023-07-31T02:28:40;19.70;99.90
20291;DHT22;10304;51.074;13.754;2023-07-31T02:31:09;19.80;99.90
20291;DHT22;10304;51.074;13.754;2023-07-31T02:33:36;19.80;99.90
20291;DHT22;10304;51.074;13.754;2023-07-31T02:36:03;19.90;99.90
20291;DHT22;10304;51.074;13.754;2023-07-31T02:38:29;19.90;99.90
20291;DHT22;10304;51.074;13.754;2023-07-31T02:40:56;19.90;99.90
20291;DHT22;10304;51.074;13.754;2023-07-31T02:43:23;19.90;99.90
20291;DHT22;10304;51.074;13.754;2023-07-31T02:45:53;20.00;99.90
20291;DHT22;10304;51.074;13.754;2023-07-31T02:48:20;20.00;99.90
20291;DHT22;10304;51.074;13.754;2023-07-31T02:50:47;20.00;99.90
20291;DHT22;10304;51.074;13.754;2023-07-31T02:53:14;20.00;99.90
20291;DHT22;10304;51.074;13.754;2023-07-31T02:55:41;20.00;99.90
20291;DHT22;10304;51.074;13.754;2023-07-31T02:58:08;20.00;99.90
20291;DHT22;10304;51.074;13.754;2023-07-31T03:00:34;20.00;99.90
20291;DHT22;10304;51.074;13.754;2023-07-31T03:03:01;20.00;99.90
20291;DHT22;10304;51.074;13.754;2023-07-31T03:05:28;20.00;99.90
20291;DHT22;10304;51.074;13.754;2023-07-31T03:07:55;20.00;99.90
20291;DHT22;10304;51.074;13.754;2023-07-31T03:10:22;20.00;99.90
20291;DHT22;10304;51.074;13.754;2023-07-31T03:12:48;20.10;99.90
20291;DHT22;10304;51.074;13.754;2023-07-31T03:15:15;20.10;99.90
20291;DHT22;10304;51.074;13.754;2023-07-31T03:17:42;20.10;99.90
20291;DHT22;10304;51.074;13.754;2023-07-31T03:20:09;20.10;99.90
20291;DHT22;10304;51.074;13.754;2023-07-31T03:22:36;20.10;99.90
20291;DHT22;10304;51.074;13.754;2023-07-31T03:25:04;20.10;99.90
20291;DHT22;10304;51.074;13.754;2023-07-31T03:27:30;20.10;99.90
20291;DHT22;10304;51.074;13.754;2023-07-31T03:29:57;20.20;99.90
20291;DHT22;10304;51.074;13.754;2023-07-31T03:32:25;20.20;99.90
20291;DHT22;10304;51.074;13.754;2023-07-31T03:34:52;20.20;99.90
20291;DHT22;10304;51.074;13.754;2023-07-31T03:37:18;20.20;99.90
20291;DHT22;10304;51.074;13.754;2023-07-31T03:39:45;20.20;99.90
20291;DHT22;10304;51.074;13.754;2023-07-31T03:42:12;20.20;99.90
20291;DHT22;10304;51.074;13.754;2023-07-31T03:44:39;20.20;99.90
20291;DHT22;10304;51.074;13.754;2023-07-31T03:47:05;20.20;99.90
20291;DHT22;10304;51.074;13.754;2023-07-31T03:49:32;20.20;99.90
20291;DHT22;10304;51.074;13.754;2023-07-31T03:51:59;20.10;99.90
20291;DHT22;10304;51.074;13.754;2023-07-31T03:54:26;20.10;99.90
20291;DHT22;10304;51.074;13.754;2023-07-31T03:56:52;20.00;1.00
20291;DHT22;10304;51.074;13.754;2023-07-31T03:59:19;20.00;1.00
20291;DHT22;10304;51.074;13.754;2023-07-31T04:01:46;19.90;1.00
20291;DHT22;10304;51.074;13.754;2023-07-31T04:04:13;19.80;1.00
20291;DHT22;10304;51.074;13.754;2023-07-31T04:06:39;19.80;1.00
20291;DHT22;10304;51.074;13.754;2023-07-31T04:09:06;19.80;1.00
20291;DHT22;10304;51.074;13.754;2023-07-31T04:11:33;19.80;1.00
20291;DHT22;10304;51.074;13.754;2023-07-31T04:14:00;19.70;1.00
20291;DHT22;10304;51.074;13.754;2023-07-31T04:16:27;19.70;1.00
20291;DHT22;10304;51.074;13.754;2023-07-31T04:18:53;19.70;18.90
20291;DHT22;10304;51.074;13.754;2023-07-31T04:21:20;19.70;54.10
20291;DHT22;10304;51.074;13.754;2023-07-31T04:23:47;19.60;99.90
20291;DHT22;10304;51.074;13.754;2023-07-31T04:26:13;19.70;99.90
20291;DHT22;10304;51.074;13.754;2023-07-31T04:28:40;19.50;99.90
20291;DHT22;10304;51.074;13.754;2023-07-31T04:31:07;19.30;1.00
20291;DHT22;10304;51.074;13.754;2023-07-31T04:33:34;19.30;72.80
20291;DHT22;10304;51.074;13.754;2023-07-31T04:36:00;19.10;99.90
20291;DHT22;10304;51.074;13.754;2023-07-31T04:38:27;19.10;1.00
20291;DHT22;10304;51.074;13.754;2023-07-31T04:40:54;19.10;1.00
20291;DHT22;10304;51.074;13.754;2023-07-31T04:43:21;19.00;1.00
20291;DHT22;10304;51.074;13.754;2023-07-31T04:45:48;19.00;99.90
20291;DHT22;10304;51.074;13.754;2023-07-31T04:48:16;19.00;99.90
20291;DHT22;10304;51.074;13.754;2023-07-31T04:50:43;19.00;99.90
20291;DHT22;10304;51.074;13.754;2023-07-31T04:53:09;19.10;99.90
20291;DHT22;10304;51.074;13.754;2023-07-31T04:55:36;19.20;1.00
20291;DHT22;10304;51.074;13.754;2023-07-31T04:58:03;19.20;1.00
20291;DHT22;10304;51.074;13.754;2023-07-31T05:00:30;19.20;99.90
20291;DHT22;10304;51.074;13.754;2023-07-31T05:02:56;19.20;99.90
20291;DHT22;10304;51.074;13.754;2023-07-31T05:05:23;19.30;99.90
20291;DHT22;10304;51.074;13.754;2023-07-31T05:07:50;19.30;99.90
20291;DHT22;10304;51.074;13.754;2023-07-31T05:10:17;19.30;99.90
20291;DHT22;10304;51.074;13.754;2023-07-31T05:12:44;19.30;99.90
20291;DHT22;10304;51.074;13.754;2023-07-31T05:15:10;19.30;99.90
20291;DHT22;10304;51.074;13.754;2023-07-31T05:17:37;19.30;99.90
20291;DHT22;10304;51.074;13.754;2023-07-31T05:20:05;19.30;99.90
20291;DHT22;10304;51.074;13.754;2023-07-31T05:22:31;19.40;1.00
20291;DHT22;10304;51.074;13.754;2023-07-31T05:24:58;19.30;99.90
20291;DHT22;10304;51.074;13.754;2023-07-31T05:27:25;19.40;13.20
20291;DHT22;10304;51.074;13.754;2023-07-31T05:29:52;19.40;1.00
20291;DHT22;10304;51.074;13.754;2023-07-31T05:32:18;19.40;1.00
20291;DHT22;10304;51.074;13.754;2023-07-31T05:34:45;19.40;1.00
20291;DHT22;10304;51.074;13.754;2023-07-31T05:37:12;19.50;1.00
20291;DHT22;10304;51.074;13.754;2023-07-31T05:39:39;19.50;1.00
20291;DHT22;10304;51.074;13.754;2023-07-31T05:42:05;19.50;1.00
20291;DHT22;10304;51.074;13.754;2023-07-31T05:44:32;19.50;1.00
20291;DHT22;10304;51.074;13.754;2023-07-31T05:46:59;19.60;1.00
20291;DHT22;10304;51.074;13.754;2023-07-31T05:49:26;19.60;1.00
20291;DHT22;10304;51.074;13.754;2023-07-31T05:51:52;19.60;1.00
20291;DHT22;10304;51.074;13.754;2023-07-31T05:54:19;19.70;99.90
20291;DHT22;10304;51.074;13.754;2023-07-31T05:56:46;19.60;1.00
20291;DHT22;10304;51.074;13.754;2023-07-31T05:59:13;19.70;1.00
20291;DHT22;10304;51.074;13.754;2023-07-31T06:01:40;19.70;1.00
20291;DHT22;10304;51.074;13.754;2023-07-31T06:04:07;19.70;1.00
20291;DHT22;10304;51.074;13.754;2023-07-31T06:06:34;19.70;1.00
20291;DHT22;10304;51.074;13.754;2023-07-31T06:09:00;19.70;1.00
20291;DHT22;10304;51.074;13.754;2023-07-31T06:11:27;19.70;99.90
20291;DHT22;10304;51.074;13.754;2023-07-31T06:13:54;19.70;99.90
20291;DHT22;10304;51.074;13.754;2023-07-31T06:16:22;19.70;1.00
20291;DHT22;10304;51.074;13.754;2023-07-31T06:18:49;19.70;1.00
20291;DHT22;10304;51.074;13.754;2023-07-31T06:21:17;19.70;99.90
20291;DHT22;10304;51.074;13.754;2023-07-31T06:23:43;19.70;99.90
20291;DHT22;10304;51.074;13.754;2023-07-31T06:26:10;19.80;99.90
20291;DHT22;10304;51.074;13.754;2023-07-31T06:28:37;19.80;99.90
20291;DHT22;10304;51.074;13.754;2023-07-31T06:31:04;19.80;63.90
20291;DHT22;10304;51.074;13.754;2023-07-31T06:33:31;19.90;97.10
20291;DHT22;10304;51.074;13.754;2023-07-31T06:35:58;19.90;1.00
20291;DHT22;10304;51.074;13.754;2023-07-31T06:38:25;20.00;1.00
20291;DHT22;10304;51.074;13.754;2023-07-31T06:40:52;20.10;1.00
20291;DHT22;10304;51.074;13.754;2023-07-31T06:43:19;20.10;1.00
20291;DHT22;10304;51.074;13.754;2023-07-31T06:45:46;20.10;1.00
20291;DHT22;10304;51.074;13.754;2023-07-31T06:48:15;20.00;1.00
20291;DHT22;10304;51.074;13.754;2023-07-31T06:50:41;19.90;1.00
20291;DHT22;10304;51.074;13.754;2023-07-31T06:53:08;19.90;99.90
20291;DHT22;10304;51.074;13.754;2023-07-31T06:55:35;19.80;99.90
20291;DHT22;10304;51.074;13.754;2023-07-31T06:58:02;19.80;99.90
20291;DHT22;10304;51.074;13.754;2023-07-31T07:00:28;19.80;99.90
20291;DHT22;10304;51.074;13.754;2023-07-31T07:02:55;19.80;99.90
20291;DHT22;10304;51.074;13.754;2023-07-31T07:05:22;19.90;99.90
20291;DHT22;10304;51.074;13.754;2023-07-31T07:07:50;19.90;99.90
20291;DHT22;10304;51.074;13.754;2023-07-31T07:10:18;20.00;99.90
20291;DHT22;10304;51.074;13.754;2023-07-31T07:12:46;20.00;99.90
20291;DHT22;10304;51.074;13.754;2023-07-31T07:15:12;20.10;1.00
20291;DHT22;10304;51.074;13.754;2023-07-31T07:17:39;20.20;1.00
20291;DHT22;10304;51.074;13.754;2023-07-31T07:20:07;20.30;1.00
20291;DHT22;10304;51.074;13.754;2023-07-31T07:22:34;20.40;1.00
20291;DHT22;10304;51.074;13.754;2023-07-31T07:25:01;20.40;1.00
20291;DHT22;10304;51.074;13.754;2023-07-31T07:27:28;20.50;1.00
20291;DHT22;10304;51.074;13.754;2023-07-31T07:29:55;20.60;1.00
20291;DHT22;10304;51.074;13.754;2023-07-31T07:32:22;20.70;99.90
20291;DHT22;10304;51.074;13.754;2023-07-31T07:34:49;20.80;99.90
20291;DHT22;10304;51.074;13.754;2023-07-31T07:37:16;20.80;99.90
20291;DHT22;10304;51.074;13.754;2023-07-31T07:39:43;20.90;99.90
20291;DHT22;10304;51.074;13.754;2023-07-31T07:42:10;21.00;99.90
20291;DHT22;10304;51.074;13.754;2023-07-31T07:44:37;21.00;99.90
20291;DHT22;10304;51.074;13.754;2023-07-31T07:47:04;21.10;99.90
20291;DHT22;10304;51.074;13.754;2023-07-31T07:49:33;21.20;18.40
20291;DHT22;10304;51.074;13.754;2023-07-31T07:52:01;21.30;1.00
20291;DHT22;10304;51.074;13.754;2023-07-31T07:54:28;21.30;1.00
20291;DHT22;10304;51.074;13.754;2023-07-31T07:56:55;21.40;1.00
20291;DHT22;10304;51.074;13.754;2023-07-31T07:59:22;21.40;1.00
20291;DHT22;10304;51.074;13.754;2023-07-31T08:01:48;21.50;1.00
20291;DHT22;10304;51.074;13.754;2023-07-31T08:04:15;21.50;1.00
20291;DHT22;10304;51.074;13.754;2023-07-31T08:06:42;21.60;1.00
20291;DHT22;10304;51.074;13.754;2023-07-31T08:09:09;21.60;1.00
20291;DHT22;10304;51.074;13.754;2023-07-31T08:11:36;21.70;1.00
20291;DHT22;10304;51.074;13.754;2023-07-31T08:14:02;21.70;1.00
20291;DHT22;10304;51.074;13.754;2023-07-31T08:16:29;21.80;1.00
20291;DHT22;10304;51.074;13.754;2023-07-31T08:18:56;21.80;1.00
20291;DHT22;10304;51.074;13.754;2023-07-31T08:21:23;21.90;1.00
20291;DHT22;10304;51.074;13.754;2023-07-31T08:23:50;22.00;1.00
20291;DHT22;10304;51.074;13.754;2023-07-31T08:26:20;22.10;1.00
20291;DHT22;10304;51.074;13.754;2023-07-31T08:28:47;22.10;1.00
20291;DHT22;10304;51.074;13.754;2023-07-31T08:31:14;22.20;99.90
20291;DHT22;10304;51.074;13.754;2023-07-31T08:33:41;22.20;99.90
20291;DHT22;10304;51.074;13.754;2023-07-31T08:36:08;22.20;99.90
20291;DHT22;10304;51.074;13.754;2023-07-31T08:38:34;22.30;99.90
20291;DHT22;10304;51.074;13.754;2023-07-31T08:41:03;22.30;99.90
20291;DHT22;10304;51.074;13.754;2023-07-31T08:43:31;22.30;99.90
20291;DHT22;10304;51.074;13.754;2023-07-31T08:45:59;22.30;99.90
20291;DHT22;10304;51.074;13.754;2023-07-31T08:48:26;22.30;99.90
20291;DHT22;10304;51.074;13.754;2023-07-31T08:50:54;22.30;99.90
20291;DHT22;10304;51.074;13.754;2023-07-31T08:53:21;22.30;99.90
20291;DHT22;10304;51.074;13.754;2023-07-31T08:55:49;22.30;99.90
20291;DHT22;10304;51.074;13.754;2023-07-31T08:58:17;22.30;99.90
20291;DHT22;10304;51.074;13.754;2023-07-31T09:00:46;22.40;99.90
20291;DHT22;10304;51.074;13.754;2023-07-31T09:03:15;22.40;99.90
20291;DHT22;10304;51.074;13.754;2023-07-31T09:05:44;22.40;99.90
20291;DHT22;10304;51.074;13.754;2023-07-31T09:08:18;22.40;99.90
20291;DHT22;10304;51.074;13.754;2023-07-31T09:10:46;22.40;99.90
20291;DHT22;10304;51.074;13.754;2023-07-31T09:13:14;22.40;99.90
20291;DHT22;10304;51.074;13.754;2023-07-31T09:15:43;22.40;99.90
20291;DHT22;10304;51.074;13.754;2023-07-31T09:18:11;22.40;99.90
20291;DHT22;10304;51.074;13.754;2023-07-31T09:20:38;22.40;99.90
20291;DHT22;10304;51.074;13.754;2023-07-31T09:25:33;22.40;99.90
20291;DHT22;10304;51.074;13.754;2023-07-31T09:28:02;22.50;99.90
20291;DHT22;10304;51.074;13.754;2023-07-31T09:30:30;22.40;99.90
20291;DHT22;10304;51.074;13.754;2023-07-31T09:33:02;22.40;99.90
20291;DHT22;10304;51.074;13.754;2023-07-31T09:35:35;22.40;99.90
20291;DHT22;10304;51.074;13.754;2023-07-31T09:38:15;22.50;99.90
20291;DHT22;10304;51.074;13.754;2023-07-31T09:40:43;22.50;99.90
20291;DHT22;10304;51.074;13.754;2023-07-31T09:43:21;22.40;99.90
20291;DHT22;10304;51.074;13.754;2023-07-31T09:45:48;22.50;99.90
20291;DHT22;10304;51.074;13.754;2023-07-31T09:48:20;22.50;99.90
20291;DHT22;10304;51.074;13.754;2023-07-31T09:50:48;22.50;99.90
20291;DHT22;10304;51.074;13.754;2023-07-31T09:53:16;22.50;99.90
20291;DHT22;10304;51.074;13.754;2023-07-31T09:55:43;22.60;99.90
20291;DHT22;10304;51.074;13.754;2023-07-31T09:58:11;22.50;99.90
20291;DHT22;10304;51.074;13.754;2023-07-31T10:00:39;22.60;99.90
20291;DHT22;10304;51.074;13.754;2023-07-31T10:03:08;22.60;99.90
20291;DHT22;10304;51.074;13.754;2023-07-31T10:05:40;22.60;99.90
20291;DHT22;10304;51.074;13.754;2023-07-31T10:08:09;22.60;99.90
20291;DHT22;10304;51.074;13.754;2023-07-31T10:10:37;22.70;99.90
20291;DHT22;10304;51.074;13.754;2023-07-31T10:13:07;22.70;99.90
20291;DHT22;10304;51.074;13.754;2023-07-31T10:15:35;22.70;99.90
20291;DHT22;10304;51.074;13.754;2023-07-31T10:18:05;22.70;99.90
20291;DHT22;10304;51.074;13.754;2023-07-31T10:20:33;22.70;99.90
20291;DHT22;10304;51.074;13.754;2023-07-31T10:23:00;22.80;99.90
20291;DHT22;10304;51.074;13.754;2023-07-31T10:25:27;22.80;99.90
20291;DHT22;10304;51.074;13.754;2023-07-31T10:27:55;22.80;99.90
20291;DHT22;10304;51.074;13.754;2023-07-31T10:30:29;22.80;99.90
20291;DHT22;10304;51.074;13.754;2023-07-31T10:32:57;22.90;99.90
20291;DHT22;10304;51.074;13.754;2023-07-31T10:35:25;22.90;99.90
20291;DHT22;10304;51.074;13.754;2023-07-31T10:37:53;23.00;99.90
20291;DHT22;10304;51.074;13.754;2023-07-31T10:40:25;23.10;78.50
20291;DHT22;10304;51.074;13.754;2023-07-31T10:42:54;23.10;89.90
20291;DHT22;10304;51.074;13.754;2023-07-31T10:45:43;23.20;58.00
20291;DHT22;10304;51.074;13.754;2023-07-31T10:48:15;23.20;55.90
20291;DHT22;10304;51.074;13.754;2023-07-31T10:50:50;23.30;36.10
20291;DHT22;10304;51.074;13.754;2023-07-31T10:53:24;23.30;35.90
20291;DHT22;10304;51.074;13.754;2023-07-31T10:55:51;23.30;32.50
20291;DHT22;10304;51.074;13.754;2023-07-31T10:58:19;23.40;30.90
20291;DHT22;10304;51.074;13.754;2023-07-31T11:00:47;23.40;31.80
20291;DHT22;10304;51.074;13.754;2023-07-31T11:03:17;23.40;38.90
20291;DHT22;10304;51.074;13.754;2023-07-31T11:05:48;23.50;26.40
20291;DHT22;10304;51.074;13.754;2023-07-31T11:08:16;23.50;2.80
20291;DHT22;10304;51.074;13.754;2023-07-31T11:10:44;23.60;1.00
20291;DHT22;10304;51.074;13.754;2023-07-31T11:13:11;23.60;1.00
20291;DHT22;10304;51.074;13.754;2023-07-31T11:15:38;23.60;1.00
20291;DHT22;10304;51.074;13.754;2023-07-31T11:18:05;23.60;1.00
20291;DHT22;10304;51.074;13.754;2023-07-31T11:20:33;23.60;1.20
20291;DHT22;10304;51.074;13.754;2023-07-31T11:23:02;23.60;11.90
20291;DHT22;10304;51.074;13.754;2023-07-31T11:25:32;23.70;1.00
20291;DHT22;10304;51.074;13.754;2023-07-31T11:28:10;23.60;1.00
20291;DHT22;10304;51.074;13.754;2023-07-31T11:30:38;23.60;1.00
20291;DHT22;10304;51.074;13.754;2023-07-31T11:33:06;23.60;1.00
20291;DHT22;10304;51.074;13.754;2023-07-31T11:35:44;23.60;2.20
20291;DHT22;10304;51.074;13.754;2023-07-31T11:38:21;23.60;1.00
20291;DHT22;10304;51.074;13.754;2023-07-31T11:40:50;23.60;8.80
20291;DHT22;10304;51.074;13.754;2023-07-31T11:43:18;23.60;22.10
20291;DHT22;10304;51.074;13.754;2023-07-31T11:45:50;23.70;35.90
20291;DHT22;10304;51.074;13.754;2023-07-31T11:48:37;23.80;46.80
20291;DHT22;10304;51.074;13.754;2023-07-31T11:51:07;23.90;54.60
20291;DHT22;10304;51.074;13.754;2023-07-31T11:53:41;24.10;30.90
20291;DHT22;10304;51.074;13.754;2023-07-31T11:56:11;24.20;8.30
20291;DHT22;10304;51.074;13.754;2023-07-31T11:58:40;24.30;9.20
20291;DHT22;10304;51.074;13.754;2023-07-31T12:01:08;24.40;5.80
20291;DHT22;10304;51.074;13.754;2023-07-31T12:03:35;24.50;1.00
20291;DHT22;10304;51.074;13.754;2023-07-31T12:06:02;24.60;1.00
20291;DHT22;10304;51.074;13.754;2023-07-31T12:08:29;24.70;1.00
20291;DHT22;10304;51.074;13.754;2023-07-31T12:11:03;24.80;1.00
20291;DHT22;10304;51.074;13.754;2023-07-31T12:13:31;24.90;1.00
20291;DHT22;10304;51.074;13.754;2023-07-31T12:16:02;25.20;1.00
20291;DHT22;10304;51.074;13.754;2023-07-31T12:18:35;25.40;1.00
20291;DHT22;10304;51.074;13.754;2023-07-31T12:21:05;25.60;1.00
20291;DHT22;10304;51.074;13.754;2023-07-31T12:23:32;25.70;1.00
20291;DHT22;10304;51.074;13.754;2023-07-31T12:26:01;25.80;1.00
20291;DHT22;10304;51.074;13.754;2023-07-31T12:28:29;25.80;1.00
20291;DHT22;10304;51.074;13.754;2023-07-31T12:31:00;25.90;1.00
20291;DHT22;10304;51.074;13.754;2023-07-31T12:33:32;25.90;1.00
20291;DHT22;10304;51.074;13.754;2023-07-31T12:36:01;26.00;1.00
20291;DHT22;10304;51.074;13.754;2023-07-31T12:38:28;26.10;1.00
20291;DHT22;10304;51.074;13.754;2023-07-31T12:40:55;26.10;1.00
20291;DHT22;10304;51.074;13.754;2023-07-31T12:43:22;26.20;1.00
20291;DHT22;10304;51.074;13.754;2023-07-31T12:45:49;26.20;1.00
20291;DHT22;10304;51.074;13.754;2023-07-31T12:48:16;26.20;1.00
20291;DHT22;10304;51.074;13.754;2023-07-31T12:50:42;26.30;1.00
20291;DHT22;10304;51.074;13.754;2023-07-31T12:53:09;26.30;1.00
20291;DHT22;10304;51.074;13.754;2023-07-31T12:55:36;26.30;1.00
20291;DHT22;10304;51.074;13.754;2023-07-31T12:58:03;26.30;1.00
20291;DHT22;10304;51.074;13.754;2023-07-31T13:00:30;26.30;1.00
20291;DHT22;10304;51.074;13.754;2023-07-31T13:02:57;26.30;1.00
20291;DHT22;10304;51.074;13.754;2023-07-31T13:05:24;26.40;1.00
20291;DHT22;10304;51.074;13.754;2023-07-31T13:07:50;26.30;1.00
20291;DHT22;10304;51.074;13.754;2023-07-31T13:10:19;26.30;1.00
20291;DHT22;10304;51.074;13.754;2023-07-31T13:12:46;26.30;1.00
20291;DHT22;10304;51.074;13.754;2023-07-31T13:15:13;26.20;1.00
20291;DHT22;10304;51.074;13.754;2023-07-31T13:17:40;26.20;1.00
20291;DHT22;10304;51.074;13.754;2023-07-31T13:20:08;26.10;1.00
20291;DHT22;10304;51.074;13.754;2023-07-31T13:22:35;26.10;1.00
20291;DHT22;10304;51.074;13.754;2023-07-31T13:25:01;26.10;1.00
20291;DHT22;10304;51.074;13.754;2023-07-31T13:27:28;26.00;1.00
20291;DHT22;10304;51.074;13.754;2023-07-31T13:29:55;26.10;1.00
20291;DHT22;10304;51.074;13.754;2023-07-31T13:32:22;26.10;1.00
20291;DHT22;10304;51.074;13.754;2023-07-31T13:34:49;26.10;1.00
20291;DHT22;10304;51.074;13.754;2023-07-31T13:37:16;26.10;1.00
20291;DHT22;10304;51.074;13.754;2023-07-31T13:39:43;26.10;1.00
20291;DHT22;10304;51.074;13.754;2023-07-31T13:42:11;26.20;1.00
20291;DHT22;10304;51.074;13.754;2023-07-31T13:44:39;26.20;1.00
20291;DHT22;10304;51.074;13.754;2023-07-31T13:47:06;26.20;1.00
20291;DHT22;10304;51.074;13.754;2023-07-31T13:49:35;26.40;1.00
20291;DHT22;10304;51.074;13.754;2023-07-31T13:52:02;26.40;1.00
20291;DHT22;10304;51.074;13.754;2023-07-31T13:54:29;26.50;1.00
20291;DHT22;10304;51.074;13.754;2023-07-31T13:56:57;26.50;1.00
20291;DHT22;10304;51.074;13.754;2023-07-31T13:59:24;26.50;1.00
20291;DHT22;10304;51.074;13.754;2023-07-31T14:01:50;26.50;1.00
20291;DHT22;10304;51.074;13.754;2023-07-31T14:04:17;26.50;1.00
20291;DHT22;10304;51.074;13.754;2023-07-31T14:06:44;26.50;1.00
20291;DHT22;10304;51.074;13.754;2023-07-31T14:09:12;26.50;1.00
20291;DHT22;10304;51.074;13.754;2023-07-31T14:11:40;26.60;1.00
20291;DHT22;10304;51.074;13.754;2023-07-31T14:14:09;26.70;1.00
20291;DHT22;10304;51.074;13.754;2023-07-31T14:16:36;26.70;1.00
20291;DHT22;10304;51.074;13.754;2023-07-31T14:19:04;26.70;1.00
20291;DHT22;10304;51.074;13.754;2023-07-31T14:21:31;26.70;1.00
20291;DHT22;10304;51.074;13.754;2023-07-31T14:23:57;26.70;1.00
20291;DHT22;10304;51.074;13.754;2023-07-31T14:26:24;26.70;1.00
20291;DHT22;10304;51.074;13.754;2023-07-31T14:28:51;26.70;1.00
20291;DHT22;10304;51.074;13.754;2023-07-31T14:31:18;26.70;1.00
20291;DHT22;10304;51.074;13.754;2023-07-31T14:33:44;26.80;1.00
20291;DHT22;10304;51.074;13.754;2023-07-31T14:36:11;26.80;1.00
20291;DHT22;10304;51.074;13.754;2023-07-31T14:38:38;26.90;1.00
20291;DHT22;10304;51.074;13.754;2023-07-31T14:41:05;26.90;1.00
20291;DHT22;10304;51.074;13.754;2023-07-31T14:43:31;27.00;1.00
20291;DHT22;10304;51.074;13.754;2023-07-31T14:45:58;27.00;1.00
20291;DHT22;10304;51.074;13.754;2023-07-31T14:48:26;27.10;1.00
20291;DHT22;10304;51.074;13.754;2023-07-31T14:50:54;27.10;1.00
20291;DHT22;10304;51.074;13.754;2023-07-31T14:53:21;27.10;1.00
20291;DHT22;10304;51.074;13.754;2023-07-31T14:55:48;27.10;1.00
20291;DHT22;10304;51.074;13.754;2023-07-31T14:58:14;27.00;1.00
20291;DHT22;10304;51.074;13.754;2023-07-31T15:00:43;27.00;1.00
20291;DHT22;10304;51.074;13.754;2023-07-31T15:03:11;27.00;1.00
20291;DHT22;10304;51.074;13.754;2023-07-31T15:05:38;27.10;1.00
20291;DHT22;10304;51.074;13.754;2023-07-31T15:08:04;27.40;1.00
20291;DHT22;10304;51.074;13.754;2023-07-31T15:10:31;27.50;1.00
20291;DHT22;10304;51.074;13.754;2023-07-31T15:12:58;27.70;1.00
20291;DHT22;10304;51.074;13.754;2023-07-31T15:15:25;27.60;1.00
20291;DHT22;10304;51.074;13.754;2023-07-31T15:17:52;27.60;1.00
20291;DHT22;10304;51.074;13.754;2023-07-31T15:20:18;27.50;1.00
20291;DHT22;10304;51.074;13.754;2023-07-31T15:22:45;27.40;1.00
20291;DHT22;10304;51.074;13.754;2023-07-31T15:25:13;27.30;1.00
20291;DHT22;10304;51.074;13.754;2023-07-31T15:27:40;27.10;1.00
20291;DHT22;10304;51.074;13.754;2023-07-31T15:30:07;27.00;1.00
20291;DHT22;10304;51.074;13.754;2023-07-31T15:32:34;27.00;1.00
20291;DHT22;10304;51.074;13.754;2023-07-31T15:35:01;26.80;1.00
20291;DHT22;10304;51.074;13.754;2023-07-31T15:37:28;26.80;1.00